.
WxDataArchive / Data Records for 2007-02-23
2007-02-22 February 2007 2007-02-24

Data Records for Friday, 23 February 2007

Time	Temp	Chill	HIndex	Humid	Dewpt	 Wind 	HiWind	WindDir	Rain 	Barom 
-----	----	-----	------	-----	-----	------	------	-------	-----	----- 
00:00	27.5	27.5	27.5	66	17.7	1	3	338	0.00	30.239 
00:05	27.3	27.3	27.3	66	17.5	1	4	315	0.00	30.240 
00:10	27.3	27.3	27.3	66	17.5	1	4	292	0.00	30.243 
00:15	27.2	27.2	27.2	66	17.4	1	4	270	0.00	30.243 
00:20	27.2	27.2	27.2	65	17.0	1	4	292	0.00	30.246 
00:25	27.2	27.2	27.2	64	16.7	2	7	338	0.00	30.248 
00:30	27.0	27.0	27.0	65	16.8	1	2	292	0.00	30.247 
00:35	26.9	26.9	26.9	65	16.7	1	4	338	0.00	30.250 
00:40	26.7	26.7	26.7	65	16.5	1	5	315	0.00	30.251 
00:45	26.7	26.7	26.7	64	16.2	1	4	315	0.00	30.251 
00:50	26.7	26.7	26.7	64	16.2	1	6	315	0.00	30.249 
00:55	26.6	26.6	26.6	63	15.7	1	4	315	0.00	30.251 
01:00	26.4	26.4	26.4	63	15.5	1	4	338	0.00	30.251 
01:05	26.4	26.4	26.4	63	15.5	1	2	292	0.00	30.253 
01:10	26.4	26.4	26.4	63	15.5	1	3	315	0.00	30.255 
01:15	26.4	26.4	26.4	63	15.5	1	4	315	0.00	30.257 
01:20	26.3	26.3	26.3	63	15.4	1	3	338	0.00	30.259 
01:25	26.1	26.1	26.1	64	15.6	1	2	338	0.00	30.258 
01:30	26.0	26.0	26.0	64	15.5	1	3	315	0.00	30.259 
01:35	26.0	26.0	26.0	64	15.5	1	5	292	0.00	30.260 
01:40	25.8	25.8	25.8	64	15.3	1	4	338	0.00	30.262 
01:45	25.7	25.7	25.7	64	15.2	0	2	338	0.00	30.266 
01:50	25.6	25.6	25.6	65	15.5	1	2	0	0.00	30.268 
01:55	25.4	25.4	25.4	65	15.3	0	2	0	0.00	30.269 
02:00	25.1	25.1	25.1	65	15.0	0	2	0	0.00	30.271 
02:05	25.1	25.1	25.1	65	15.0	0	4	0	0.00	30.270 
02:10	25.0	25.0	25.0	65	14.9	0	2	0	0.00	30.271 
02:15	24.8	24.8	24.8	65	14.7	0	3	270	0.00	30.271 
02:20	24.7	24.7	24.7	66	15.0	1	3	270	0.00	30.271 
02:25	24.5	24.5	24.5	66	14.8	0	2	315	0.00	30.270 
02:30	24.4	24.4	24.4	66	14.7	0	1	338	0.00	30.273 
02:35	24.2	24.2	24.2	66	14.5	0	2	315	0.00	30.274 
02:40	24.1	24.1	24.1	66	14.4	0	1	315	0.00	30.275 
02:45	23.9	23.9	23.9	66	14.2	0	1	315	0.00	30.275 
02:50	23.6	23.6	23.6	66	13.9	0	2	270	0.00	30.279 
02:55	23.6	23.6	23.6	66	13.9	0	1	270	0.00	30.283 
03:00	23.6	23.6	23.6	66	13.9	0	2	338	0.00	30.284 
03:05	23.6	23.6	23.6	66	13.9	1	3	22	0.00	30.281 
03:10	23.6	23.6	23.6	65	13.6	1	4	0	0.00	30.279 
03:15	23.5	23.5	23.5	65	13.5	0	3	0	0.00	30.278 
03:20	23.3	23.3	23.3	65	13.3	0	4	0	0.00	30.281 
03:25	23.2	23.2	23.2	65	13.2	0	2	315	0.00	30.281 
03:30	23.0	23.0	23.0	65	13.0	0	2	338	0.00	30.282 
03:35	22.9	22.9	22.9	65	12.9	0	2	292	0.00	30.283 
03:40	22.9	22.9	22.9	65	12.9	0	2	315	0.00	30.285 
03:45	22.7	22.7	22.7	65	12.7	0	3	315	0.00	30.286 
03:50	22.4	22.4	22.4	65	12.4	0	1	315	0.00	30.288 
03:55	22.2	22.2	22.2	66	12.6	0	2	315	0.00	30.292 
04:00	22.1	22.1	22.1	66	12.5	0	1	315	0.00	30.295 
04:05	21.8	21.8	21.8	67	12.6	0	1	315	0.00	30.297 
04:10	21.6	21.6	21.6	68	12.7	0	0	---	0.00	30.298 
04:15	21.1	21.1	21.1	68	12.2	0	0	---	0.00	30.302 
04:20	20.8	20.8	20.8	69	12.3	0	1	315	0.00	30.305 
04:25	20.8	20.8	20.8	70	12.6	0	1	315	0.00	30.306 
04:30	20.8	20.8	20.8	69	12.3	0	1	315	0.00	30.306 
04:35	20.6	20.6	20.6	69	12.1	0	1	270	0.00	30.306 
04:40	20.6	20.6	20.6	69	12.1	0	1	270	0.00	30.307 
04:45	20.6	20.6	20.6	69	12.1	0	1	270	0.00	30.315 
04:50	20.5	20.5	20.5	69	12.0	0	1	270	0.00	30.317 
04:55	20.3	20.3	20.3	69	11.8	0	1	292	0.00	30.321 
05:00	20.2	20.2	20.2	69	11.7	0	1	292	0.00	30.324 
05:05	20.2	20.2	20.2	69	11.7	0	1	292	0.00	30.325 
05:10	20.0	20.0	20.0	69	11.5	0	1	292	0.00	30.325 
05:15	20.0	20.0	20.0	69	11.5	0	2	315	0.00	30.326 
05:20	19.9	19.9	19.9	69	11.4	0	1	315	0.00	30.332 
05:25	19.9	19.9	19.9	69	11.4	0	1	315	0.00	30.338 
05:30	19.7	19.7	19.7	69	11.2	0	1	315	0.00	30.339 
05:35	19.5	19.5	19.5	69	11.0	0	1	315	0.00	30.340 
05:40	19.4	19.4	19.4	69	10.9	0	1	315	0.00	30.344 
05:45	19.4	19.4	19.4	69	10.9	0	1	315	0.00	30.348 
05:50	19.2	19.2	19.2	69	10.7	0	1	315	0.00	30.351 
05:55	19.2	19.2	19.2	69	10.7	0	1	315	0.00	30.354 
06:00	19.2	19.2	19.2	69	10.7	0	1	315	0.00	30.354 
06:05	19.2	19.2	19.2	69	10.7	0	1	315	0.00	30.354 
06:10	19.1	19.1	19.1	69	10.6	0	1	315	0.00	30.355 
06:15	19.1	19.1	19.1	69	10.6	0	1	315	0.00	30.356 
06:20	18.9	18.9	18.9	70	10.8	0	1	315	0.00	30.358 
06:25	18.8	18.8	18.8	70	10.7	0	1	315	0.00	30.364 
06:30	18.4	18.4	18.4	70	10.3	0	1	315	0.00	30.366 
06:35	18.1	18.1	18.1	71	10.3	0	0	---	0.00	30.369 
06:40	17.8	17.8	17.8	71	10.0	0	0	---	0.00	30.371 
06:45	17.7	17.7	17.7	72	10.2	0	0	---	0.00	30.372 
06:50	17.3	17.3	17.3	73	10.2	0	0	---	0.00	30.373 
06:55	17.2	17.2	17.2	73	10.1	0	0	---	0.00	30.373 
07:00	16.9	16.9	16.9	73	9.8	0	0	---	0.00	30.373 
07:05	16.5	16.5	16.5	74	9.7	0	0	---	0.00	30.375 
07:10	16.4	16.4	16.4	75	9.9	0	0	---	0.00	30.378 
07:15	16.1	16.1	16.1	76	9.9	0	0	---	0.00	30.378 
07:20	16.1	16.1	16.1	76	9.9	0	0	---	0.00	30.378 
07:25	16.1	16.1	16.1	77	10.2	0	0	---	0.00	30.378 
07:30	16.1	16.1	16.1	77	10.2	0	0	---	0.00	30.379 
07:35	16.1	16.1	16.1	77	10.2	0	0	---	0.00	30.378 
07:40	16.1	16.1	16.1	77	10.2	0	0	---	0.00	30.379 
07:45	16.4	16.4	16.4	77	10.5	0	0	---	0.00	30.378 
07:50	16.7	16.7	16.7	77	10.8	0	1	315	0.00	30.376 
07:55	17.0	17.0	17.0	76	10.8	0	1	315	0.00	30.378 
08:00	17.3	17.3	17.3	75	10.8	0	1	315	0.00	30.381 
08:05	17.7	17.7	17.7	75	11.1	0	1	315	0.00	30.383 
08:10	17.8	17.8	17.8	74	10.9	0	1	315	0.00	30.386 
08:15	18.1	18.1	18.1	74	11.2	0	1	315	0.00	30.390 
08:20	18.4	18.4	18.4	73	11.2	0	1	315	0.00	30.392 
08:25	18.9	18.9	18.9	72	11.4	0	2	315	0.00	30.395 
08:30	19.2	19.2	19.2	70	11.0	0	1	315	0.00	30.398 
08:35	19.5	19.5	19.5	69	11.0	0	2	338	0.00	30.400 
08:40	19.9	19.9	19.9	68	11.1	0	2	338	0.00	30.403 
08:45	20.0	20.0	20.0	67	10.8	0	2	0	0.00	30.406 
08:50	20.3	20.3	20.3	66	10.8	1	2	338	0.00	30.405 
08:55	20.8	20.8	20.8	65	10.9	1	2	0	0.00	30.403 
09:00	21.3	21.3	21.3	64	11.0	0	3	0	0.00	30.402 
09:05	21.6	21.6	21.6	63	11.0	1	2	0	0.00	30.401 
09:10	22.1	22.1	22.1	62	11.1	1	5	0	0.00	30.400 
09:15	22.4	22.4	22.4	61	11.0	2	6	68	0.00	30.394 
09:20	22.5	22.5	22.5	61	11.1	1	6	45	0.00	30.390 
09:25	22.9	22.9	22.9	61	11.5	2	7	45	0.00	30.389 
09:30	23.0	23.0	23.0	60	11.2	1	5	45	0.00	30.387 
09:35	23.0	23.0	23.0	60	11.2	2	5	45	0.00	30.387 
09:40	23.0	23.0	23.0	61	11.6	1	5	22	0.00	30.389 
09:45	23.3	23.3	23.3	59	11.1	2	7	90	0.00	30.389 
09:50	23.5	23.5	23.5	59	11.3	2	6	45	0.00	30.389 
09:55	23.5	23.5	23.5	59	11.3	2	4	45	0.00	30.390 
10:00	23.8	23.8	23.8	59	11.6	2	5	45	0.00	30.388 
10:05	23.9	23.9	23.9	58	11.3	2	7	45	0.00	30.388 
10:10	23.9	23.9	23.9	59	11.7	3	9	90	0.00	30.387 
10:15	24.1	24.1	24.1	58	11.5	1	5	135	0.00	30.387 
10:20	24.5	24.5	24.5	58	11.9	1	5	315	0.00	30.387 
10:25	24.8	24.8	24.8	57	11.8	3	7	90	0.00	30.385 
10:30	24.4	24.4	24.4	56	11.0	2	6	45	0.00	30.379 
10:35	24.5	24.5	24.5	56	11.1	2	6	22	0.00	30.379 
10:40	24.7	24.7	24.7	55	10.9	3	7	90	0.00	30.382 
10:45	24.5	19.4	24.5	53	9.8	4	11	90	0.00	30.384 
10:50	24.5	24.5	24.5	54	10.3	2	5	112	0.00	30.383 
10:55	25.0	25.0	25.0	55	11.1	2	6	112	0.00	30.385 
11:00	25.0	20.0	25.0	54	10.7	4	9	112	0.00	30.388 
11:05	25.0	25.0	25.0	53	10.3	2	6	112	0.00	30.387 
11:10	25.3	25.3	25.3	55	11.4	1	4	112	0.00	30.386 
11:15	25.7	25.7	25.7	52	10.5	2	5	90	0.00	30.384 
11:20	25.4	25.4	25.4	53	10.7	3	8	112	0.00	30.385 
11:25	25.4	25.4	25.4	52	10.3	1	5	68	0.00	30.389 
11:30	25.7	25.7	25.7	54	11.4	3	6	112	0.00	30.388 
11:35	25.4	25.4	25.4	51	9.8	3	6	112	0.00	30.389 
11:40	25.1	25.1	25.1	53	10.4	3	5	112	0.00	30.392 
11:45	25.4	25.4	25.4	54	11.1	1	5	90	0.00	30.395 
11:50	25.3	25.3	25.3	51	9.7	3	6	112	0.00	30.397 
11:55	25.4	25.4	25.4	51	9.8	2	5	90	0.00	30.401 
12:00	25.8	25.8	25.8	51	10.2	0	3	90	0.00	30.403 
12:05	26.0	26.0	26.0	50	9.9	1	3	90	0.00	30.405 
12:10	26.3	26.3	26.3	52	11.1	1	2	90	0.00	30.405 
12:15	26.9	26.9	26.9	50	10.8	1	3	112	0.00	30.406 
12:20	27.0	27.0	27.0	52	11.7	1	3	90	0.00	30.409 
12:25	27.0	27.0	27.0	50	10.9	1	4	90	0.00	30.415 
12:30	27.0	27.0	27.0	49	10.4	1	3	90	0.00	30.409 
12:35	27.0	27.0	27.0	49	10.4	1	3	112	0.00	30.406 
12:40	27.0	27.0	27.0	49	10.4	0	1	112	0.00	30.401 
12:45	27.2	27.2	27.2	50	11.1	0	4	112	0.00	30.394 
12:50	27.2	27.2	27.2	48	10.1	1	4	112	0.00	30.394 
12:55	27.0	27.0	27.0	48	10.0	2	4	112	0.00	30.390 
13:00	27.2	27.2	27.2	50	11.1	1	4	90	0.00	30.389 
13:05	27.0	27.0	27.0	51	11.3	2	5	90	0.00	30.388 
13:10	26.9	26.9	26.9	50	10.8	2	4	112	0.00	30.386 
13:15	26.7	26.7	26.7	48	9.7	1	4	90	0.00	30.382 
13:20	27.0	27.0	27.0	49	10.4	1	4	112	0.00	30.381 
13:25	27.3	27.3	27.3	50	11.1	2	5	90	0.00	30.375 
13:30	27.5	27.5	27.5	49	10.9	1	5	112	0.00	30.376 
13:35	27.5	27.5	27.5	50	11.3	1	4	68	0.00	30.375 
13:40	27.5	27.5	27.5	49	10.9	1	2	45	0.00	30.375 
13:45	27.8	27.8	27.8	50	11.6	1	4	45	0.00	30.375 
13:50	27.6	27.6	27.6	50	11.4	2	5	112	0.00	30.373 
13:55	27.5	27.5	27.5	50	11.3	1	3	135	0.00	30.373 
14:00	27.6	27.6	27.6	52	12.3	1	4	112	0.00	30.371 
14:05	27.6	27.6	27.6	49	11.0	2	5	112	0.00	30.366 
14:10	27.8	27.8	27.8	51	12.1	1	5	45	0.00	30.361 
14:15	28.2	28.2	28.2	49	11.5	1	3	90	0.00	30.358 
14:20	27.8	27.8	27.8	50	11.6	2	5	112	0.00	30.358 
14:25	27.8	27.8	27.8	52	12.5	1	4	112	0.00	30.359 
14:30	27.9	27.9	27.9	50	11.7	2	6	112	0.00	30.358 
14:35	27.9	27.9	27.9	49	11.2	3	6	112	0.00	30.357 
14:40	28.1	28.1	28.1	51	12.3	1	4	135	0.00	30.357 
14:45	28.4	28.4	28.4	50	12.2	1	4	90	0.00	30.355 
14:50	28.4	28.4	28.4	50	12.2	1	4	112	0.00	30.354 
14:55	28.5	28.5	28.5	52	13.1	2	7	112	0.00	30.352 
15:00	28.2	28.2	28.2	52	12.9	3	7	112	0.00	30.352 
15:05	28.2	28.2	28.2	50	12.0	2	6	90	0.00	30.353 
15:10	28.2	28.2	28.2	50	12.0	2	5	112	0.00	30.350 
15:15	28.5	28.5	28.5	49	11.8	2	5	112	0.00	30.351 
15:20	28.8	28.8	28.8	50	12.5	2	6	90	0.00	30.354 
15:25	29.1	29.1	29.1	49	12.4	1	5	112	0.00	30.357 
15:30	29.3	29.3	29.3	47	11.6	2	5	90	0.00	30.357 
15:35	29.1	29.1	29.1	48	11.9	2	5	112	0.00	30.355 
15:40	29.3	29.3	29.3	46	11.1	1	3	45	0.00	30.354 
15:45	29.3	29.3	29.3	51	13.4	2	5	112	0.00	30.354 
15:50	29.1	29.1	29.1	50	12.8	2	5	112	0.00	30.355 
15:55	29.1	29.1	29.1	50	12.8	2	6	112	0.00	30.354 
16:00	29.0	29.0	29.0	51	13.2	2	5	90	0.00	30.354 
16:05	29.1	29.1	29.1	49	12.4	1	4	90	0.00	30.355 
16:10	29.1	29.1	29.1	52	13.7	1	6	90	0.00	30.357 
16:15	28.8	28.8	28.8	51	13.0	2	6	112	0.00	30.359 
16:20	28.8	28.8	28.8	51	13.0	1	5	90	0.00	30.357 
16:25	28.8	28.8	28.8	50	12.5	2	6	112	0.00	30.353 
16:30	28.4	28.4	28.4	51	12.6	2	7	112	0.00	30.351 
16:35	28.4	28.4	28.4	51	12.6	2	5	90	0.00	30.356 
16:40	28.1	28.1	28.1	50	11.9	1	3	112	0.00	30.351 
16:45	27.9	27.9	27.9	51	12.1	1	4	90	0.00	30.349 
16:50	27.8	27.8	27.8	51	12.1	2	5	90	0.00	30.347 
16:55	27.8	27.8	27.8	52	12.5	2	4	90	0.00	30.348 
17:00	27.8	27.8	27.8	51	12.1	2	6	90	0.00	30.353 
17:05	27.8	27.8	27.8	52	12.5	2	4	90	0.00	30.354 
17:10	27.8	27.8	27.8	52	12.5	2	4	112	0.00	30.351 
17:15	27.8	27.8	27.8	54	13.3	2	5	90	0.00	30.347 
17:20	27.6	27.6	27.6	54	13.2	3	6	112	0.00	30.346 
17:25	27.5	27.5	27.5	54	13.1	3	7	112	0.00	30.347 
17:30	27.3	27.3	27.3	54	12.9	3	7	90	0.00	30.346 
17:35	27.0	22.3	27.0	54	12.6	4	7	112	0.00	30.347 
17:40	26.9	26.9	26.9	54	12.5	2	5	112	0.00	30.347 
17:45	26.7	26.7	26.7	54	12.3	3	6	112	0.00	30.347 
17:50	26.6	26.6	26.6	54	12.2	3	6	90	0.00	30.347 
17:55	26.4	26.4	26.4	55	12.5	2	4	112	0.00	30.350 
18:00	26.3	26.3	26.3	54	11.9	1	3	112	0.00	30.353 
18:05	26.1	26.1	26.1	54	11.8	1	4	90	0.00	30.357 
18:10	25.8	25.8	25.8	52	10.6	2	5	112	0.00	30.355 
18:15	25.6	25.6	25.6	53	10.9	2	6	112	0.00	30.354 
18:20	25.4	25.4	25.4	52	10.3	3	5	112	0.00	30.353 
18:25	25.3	25.3	25.3	53	10.6	2	4	90	0.00	30.350 
18:30	25.1	25.1	25.1	53	10.4	2	6	90	0.00	30.351 
18:35	25.1	25.1	25.1	54	10.8	2	5	90	0.00	30.351 
18:40	25.0	25.0	25.0	54	10.7	2	5	90	0.00	30.352 
18:45	24.8	24.8	24.8	55	11.0	1	3	90	0.00	30.355 
18:50	24.7	24.7	24.7	56	11.3	1	3	90	0.00	30.357 
18:55	24.7	24.7	24.7	55	10.9	1	3	90	0.00	30.356 
19:00	24.5	24.5	24.5	56	11.1	1	2	90	0.00	30.356 
19:05	24.4	24.4	24.4	57	11.4	0	2	90	0.00	30.363 
19:10	24.2	24.2	24.2	57	11.2	1	2	90	0.00	30.365 
19:15	24.1	24.1	24.1	57	11.1	1	2	90	0.00	30.368 
19:20	23.9	23.9	23.9	58	11.3	1	2	90	0.00	30.367 
19:25	23.8	23.8	23.8	58	11.2	0	2	90	0.00	30.363 
19:30	23.6	23.6	23.6	59	11.4	1	2	90	0.00	30.358 
19:35	23.6	23.6	23.6	58	11.0	1	2	90	0.00	30.360 
19:40	23.5	23.5	23.5	59	11.3	0	1	90	0.00	30.364 
19:45	23.3	23.3	23.3	58	10.7	1	2	90	0.00	30.368 
19:50	23.3	23.3	23.3	58	10.7	1	3	90	0.00	30.368 
19:55	23.3	23.3	23.3	58	10.7	1	2	90	0.00	30.368 
20:00	23.2	23.2	23.2	59	11.0	0	1	90	0.00	30.369 
20:05	23.0	23.0	23.0	60	11.2	0	1	90	0.00	30.365 
20:10	22.7	22.7	22.7	61	11.3	0	1	90	0.00	30.366 
20:15	22.5	22.5	22.5	61	11.1	1	4	90	0.00	30.363 
20:20	22.5	22.5	22.5	62	11.5	2	4	90	0.00	30.361 
20:25	22.5	22.5	22.5	62	11.5	2	4	112	0.00	30.362 
20:30	22.4	22.4	22.4	63	11.7	1	3	112	0.00	30.364 
20:35	22.4	22.4	22.4	63	11.7	2	4	112	0.00	30.362 
20:40	22.2	22.2	22.2	63	11.6	1	4	112	0.00	30.364 
20:45	22.2	22.2	22.2	64	11.9	1	3	112	0.00	30.365 
20:50	22.1	22.1	22.1	64	11.8	1	3	112	0.00	30.366 
20:55	22.1	22.1	22.1	64	11.8	1	2	112	0.00	30.365 
21:00	21.9	21.9	21.9	63	11.3	1	3	112	0.00	30.366 
21:05	21.9	21.9	21.9	63	11.3	2	5	112	0.00	30.360 
21:10	21.9	21.9	21.9	63	11.3	2	4	90	0.00	30.362 
21:15	21.8	21.8	21.8	63	11.2	1	4	112	0.00	30.361 
21:20	21.8	21.8	21.8	63	11.2	2	4	90	0.00	30.360 
21:25	21.8	21.8	21.8	64	11.5	1	4	112	0.00	30.363 
21:30	21.8	21.8	21.8	64	11.5	0	2	112	0.00	30.367 
21:35	21.6	21.6	21.6	65	11.7	0	1	112	0.00	30.366 
21:40	21.4	21.4	21.4	65	11.5	0	2	112	0.00	30.363 
21:45	21.4	21.4	21.4	65	11.5	0	1	112	0.00	30.364 
21:50	21.3	21.3	21.3	65	11.4	1	2	112	0.00	30.364 
21:55	21.1	21.1	21.1	65	11.2	1	2	112	0.00	30.365 
22:00	21.1	21.1	21.1	65	11.2	0	2	112	0.00	30.364 
22:05	21.0	21.0	21.0	66	11.5	0	1	112	0.00	30.363 
22:10	20.6	20.6	20.6	66	11.1	0	1	112	0.00	30.363 
22:15	20.5	20.5	20.5	66	11.0	0	1	112	0.00	30.364 
22:20	20.3	20.3	20.3	67	11.1	0	0	---	0.00	30.365 
22:25	20.0	20.0	20.0	67	10.8	0	0	---	0.00	30.365 
22:30	19.7	19.7	19.7	68	10.9	0	0	---	0.00	30.365 
22:35	19.5	19.5	19.5	69	11.0	0	0	---	0.00	30.365 
22:40	19.4	19.4	19.4	69	10.9	0	1	112	0.00	30.363 
22:45	19.4	19.4	19.4	69	10.9	0	0	---	0.00	30.364 
22:50	19.2	19.2	19.2	69	10.7	0	1	112	0.00	30.364 
22:55	19.2	19.2	19.2	69	10.7	0	1	112	0.00	30.364 
23:00	19.2	19.2	19.2	69	10.7	0	1	112	0.00	30.361 
23:05	19.2	19.2	19.2	69	10.7	0	1	112	0.00	30.356 
23:10	19.2	19.2	19.2	69	10.7	0	2	112	0.00	30.356 
23:15	19.2	19.2	19.2	69	10.7	0	1	112	0.00	30.361 
23:20	19.2	19.2	19.2	69	10.7	0	1	112	0.00	30.357 
23:25	19.2	19.2	19.2	69	10.7	0	1	112	0.00	30.357 
23:30	19.2	19.2	19.2	69	10.7	0	1	112	0.00	30.356 
23:35	19.2	19.2	19.2	69	10.7	0	2	112	0.00	30.350 
23:40	19.2	19.2	19.2	69	10.7	1	2	112	0.00	30.347 
23:45	19.4	19.4	19.4	69	10.9	1	3	90	0.00	30.344 
23:50	19.5	19.5	19.5	69	11.0	2	6	90	0.00	30.335 
23:55	19.7	19.7	19.7	69	11.2	1	3	112	0.00	30.337 

CoCoRaHS
IN-AL-39
A2 Web Hosting
Creative Commons License
GoDaddy
Look for:

loaded 2017-10-18 22:21:36 • last modified 2010-11-18 10:43:29
Privacy PolicyDisclaimer
• wx.awcolley.com is powered by PmWiki v.2002016 •
• all content (unless otherwise noted) © 2017 A W Colley